Baie-Comeau, Canada
Current Conditions -  °F | °C
As of 4:00 AM on Friday 19 Dec 2014 (Local Time) from CYBC Reporting Station
Overcast Overcast  
Wind Chill: -10°   Ceiling: 6500
Heat Index: -4°   Visibility: 9mi
Dew Point: -10°   Wind: 10mph
Humidity: 64%   Direction: 360°N
Pressure: 29.82"   Gusts: NA
Location:  49.22°N, 68.15°W
Report Text: CYBC 190900Z AUTO 36009KT 9SM SCT044 OVC065 M04/M10 A2982 RMK SLP098
Loading
Personal Weather Stations






























Interactive Weather Map New forecast layout! Learn more

10-Day Weather Forecast

Advertisements
Track Severe Weather on mobile